Time;durP1;ratioP1;P1;durP2;ratioP2;P2;SDS_P1;SDS_P2;PMS_P1;PMS_P2;Temp;Humidity;BMP_temperature;BMP_pressure;BME280_temperature;BME280_humidity;BME280_pressure;Samples;Min_cycle;Max_cycle;Signal;HPM_P1;HPM_P2
2022/04/27 00:00:33;;;;;;;5.13;2.33;;;;;;;16.95;66.16;99687.41;3125068;28;21865;-68
2022/04/27 00:02:06;;;;;;;7.47;2.45;;;;;;;16.88;66.19;99680.88;3124921;28;20541;-70
2022/04/27 00:03:39;;;;;;;5.97;2.05;;;;;;;16.94;66.24;99680.44;3124736;28;20065;-69
2022/04/27 00:05:12;;;;;;;12.63;2.53;;;;;;;16.94;66.15;99672.53;3125917;28;20110;-68
2022/04/27 00:06:44;;;;;;;5.45;2.15;;;;;;;16.90;66.37;99679.00;3125051;28;20049;-69
2022/04/27 00:08:15;;;;;;;8.02;1.55;;;;;;;16.90;66.53;99686.06;3125140;28;20102;-69
2022/04/27 00:09:47;;;;;;;5.15;1.85;;;;;;;16.85;66.50;99680.28;3124957;28;20057;-70
2022/04/27 00:11:19;;;;;;;5.07;1.75;;;;;;;16.76;66.66;99677.38;3125418;28;20053;-69
2022/04/27 00:12:51;;;;;;;6.75;1.80;;;;;;;16.71;66.57;99683.88;3124831;28;20053;-70
2022/04/27 00:14:25;;;;;;;3.38;1.80;;;;;;;16.67;66.88;99685.88;3125745;28;20049;-69
2022/04/27 00:15:57;;;;;;;4.50;1.48;;;;;;;16.59;67.33;99677.72;3124376;28;20754;-70
2022/04/27 00:17:29;;;;;;;5.80;1.60;;;;;;;16.55;67.17;99674.47;3125549;28;20061;-70
2022/04/27 00:19:03;;;;;;;4.53;1.63;;;;;;;16.49;67.32;99679.34;3125557;28;20059;-68
2022/04/27 00:20:34;;;;;;;3.75;1.45;;;;;;;16.43;67.47;99670.09;3124885;28;20056;-67
2022/04/27 00:22:06;;;;;;;4.93;1.50;;;;;;;16.41;67.37;99673.78;3127797;28;20536;-70
2022/04/27 00:23:38;;;;;;;5.35;1.60;;;;;;;16.36;67.65;99664.44;3129365;28;20107;-70
2022/04/27 00:25:10;;;;;;;2.15;1.17;;;;;;;16.37;67.56;99670.53;3129381;28;20057;-69
2022/04/27 00:26:42;;;;;;;5.28;1.55;;;;;;;16.36;67.74;99666.25;3129227;28;20139;-69
2022/04/27 00:28:14;;;;;;;5.10;1.60;;;;;;;16.35;67.79;99673.25;3129027;28;20500;-70
2022/04/27 00:29:46;;;;;;;4.25;1.38;;;;;;;16.30;67.67;99662.25;3130715;28;20240;-69
2022/04/27 00:31:18;;;;;;;6.97;1.60;;;;;;;16.29;67.99;99671.06;3129375;28;20119;-68
2022/04/27 00:32:49;;;;;;;7.60;1.50;;;;;;;16.25;68.07;99671.41;3129075;28;20322;-69
2022/04/27 00:34:22;;;;;;;4.32;1.55;;;;;;;16.19;68.45;99670.03;3128899;28;20627;-68
2022/04/27 00:35:54;;;;;;;4.03;1.40;;;;;;;16.15;68.11;99665.97;3128057;28;20049;-68
2022/04/27 00:37:26;;;;;;;3.03;1.15;;;;;;;16.09;68.45;99664.63;3129086;28;20053;-68
2022/04/27 00:38:58;;;;;;;2.78;1.63;;;;;;;16.04;68.49;99666.72;3129400;28;20067;-68
2022/04/27 00:40:30;;;;;;;4.38;1.13;;;;;;;15.87;68.58;99646.88;3128208;28;20052;-69
2022/04/27 00:42:13;;;;;;;8.52;1.67;;;;;;;15.99;68.92;99668.81;3129183;28;20049;-69
2022/04/27 00:43:45;;;;;;;3.55;1.30;;;;;;;15.95;68.65;99661.28;3128978;28;20107;-69
2022/04/27 00:45:17;;;;;;;5.72;1.50;;;;;;;15.90;69.10;99662.41;3128085;28;20355;-69
2022/04/27 00:46:49;;;;;;;3.95;1.15;;;;;;;15.89;68.98;99662.53;3129128;28;20049;-69
2022/04/27 00:48:21;;;;;;;3.35;1.55;;;;;;;15.91;69.41;99660.63;3128709;28;20053;-69
2022/04/27 00:49:57;;;;;;;5.28;1.73;;;;;;;15.88;69.24;99659.06;3123327;28;20164;-69
2022/04/27 00:51:30;;;;;;;6.95;1.90;;;;;;;15.80;69.41;99658.75;3120898;28;20049;-69
2022/04/27 00:53:03;;;;;;;4.10;1.40;;;;;;;15.69;70.12;99666.53;3126242;28;20446;-68
2022/04/27 00:54:35;;;;;;;3.58;1.98;;;;;;;15.62;70.35;99657.38;3129355;28;20060;-68
2022/04/27 00:56:07;;;;;;;5.10;1.40;;;;;;;15.50;70.70;99651.16;3122755;28;20080;-68
2022/04/27 00:57:40;;;;;;;4.25;1.48;;;;;;;15.48;71.09;99667.00;3124634;28;20316;-70
2022/04/27 00:59:13;;;;;;;2.80;1.33;;;;;;;15.39;71.41;99665.00;3126200;28;20049;-69
2022/04/27 01:00:45;;;;;;;1.98;1.60;;;;;;;15.30;71.85;99667.41;3123764;28;20164;-69
2022/04/27 01:02:17;;;;;;;4.50;1.70;;;;;;;15.20;72.25;99665.41;3128736;28;20067;-69
2022/04/27 01:03:49;;;;;;;3.45;1.70;;;;;;;15.14;72.71;99664.94;3128968;28;20164;-69
2022/04/27 01:05:23;;;;;;;3.92;1.60;;;;;;;15.04;72.47;99646.38;3131116;28;20500;-70
2022/04/27 01:06:55;;;;;;;4.30;2.05;;;;;;;15.00;72.60;99644.91;3128590;28;20544;-71
2022/04/27 01:08:27;;;;;;;6.72;1.75;;;;;;;14.76;73.11;99621.97;3134277;28;20048;-69
2022/04/27 01:09:57;;;;;;;2.80;1.75;;;;;;;14.95;73.59;99662.72;3133573;28;20429;-69
2022/04/27 01:11:31;;;;;;;8.18;3.15;;;;;;;14.84;73.98;99660.78;3133965;28;20061;-70
2022/04/27 01:13:03;;;;;;;3.47;1.98;;;;;;;14.78;74.20;99664.63;3133939;28;20057;-71
2022/04/27 01:14:41;;;;;;;3.80;2.10;;;;;;;14.72;74.64;99659.78;3133578;28;20053;-69
2022/04/27 01:16:13;;;;;;;5.03;2.47;;;;;;;14.68;74.53;99657.47;3134053;28;20081;-69
2022/04/27 01:17:45;;;;;;;4.07;2.55;;;;;;;14.61;74.86;99651.78;3133625;28;20123;-68
2022/04/27 01:19:17;;;;;;;4.25;2.53;;;;;;;14.59;75.46;99655.44;3134403;28;20056;-69
2022/04/27 01:20:51;;;;;;;4.75;2.38;;;;;;;14.51;75.24;99646.28;3132275;28;20104;-69
2022/04/27 01:22:22;;;;;;;3.92;2.10;;;;;;;14.47;75.98;99654.41;3133445;28;20045;-69
2022/04/27 01:23:54;;;;;;;5.93;2.30;;;;;;;14.46;75.74;99650.09;3126358;28;20144;-69
2022/04/27 01:25:26;;;;;;;7.07;2.85;;;;;;;14.45;75.50;99653.66;3118043;28;20046;-69
2022/04/27 01:26:58;;;;;;;9.70;2.30;;;;;;;14.39;75.84;99647.03;3128972;28;20090;-68
2022/04/27 01:28:31;;;;;;;5.43;2.47;;;;;;;14.40;75.93;99637.41;3130341;28;20165;-68
2022/04/27 01:30:02;;;;;;;4.85;2.10;;;;;;;14.41;76.12;99636.47;3133622;28;20064;-68
2022/04/27 01:31:34;;;;;;;4.38;2.13;;;;;;;14.39;76.08;99639.19;3133580;28;20098;-68
2022/04/27 01:33:08;;;;;;;5.32;2.20;;;;;;;14.39;76.22;99641.78;3133406;28;20045;-68
2022/04/27 01:34:39;;;;;;;6.43;2.10;;;;;;;14.38;76.08;99637.50;3132614;28;20160;-68
2022/04/27 01:36:13;;;;;;;4.20;2.05;;;;;;;14.38;76.21;99645.38;3133727;28;20041;-68
2022/04/27 01:38:02;;;;;;;9.57;2.20;;;;;;;14.34;76.13;99639.47;3133625;28;20049;-69
2022/04/27 01:39:35;;;;;;;5.43;2.47;;;;;;;14.33;76.05;99648.25;3132563;28;20056;-68
2022/04/27 01:41:08;;;;;;;6.40;2.88;;;;;;;14.36;76.06;99641.16;3133195;28;20546;-69
2022/04/27 01:42:39;;;;;;;5.20;2.50;;;;;;;14.37;75.67;99641.03;3133574;28;20123;-69
2022/04/27 01:44:11;;;;;;;5.10;2.20;;;;;;;14.37;76.08;99635.81;3133349;28;20049;-71
2022/04/27 01:45:45;;;;;;;5.82;2.28;;;;;;;14.31;75.84;99629.16;3133537;28;20537;-69
2022/04/27 01:47:17;;;;;;;6.50;2.03;;;;;;;14.37;76.08;99638.41;3133372;28;20048;-69
2022/04/27 01:48:50;;;;;;;9.98;2.00;;;;;;;14.40;75.61;99640.00;3127182;28;20065;-68
2022/04/27 01:50:21;;;;;;;7.20;1.90;;;;;;;14.41;75.77;99636.47;3130319;28;20068;-69
2022/04/27 01:55:33;;;;;;;9.23;1.92;;;;;;;14.36;75.43;99630.69;3129850;28;20049;-70
2022/04/27 01:57:07;;;;;;;3.97;1.70;;;;;;;14.40;75.26;99635.59;3133641;28;20060;-70
2022/04/27 01:58:38;;;;;;;6.68;1.92;;;;;;;14.40;75.16;99640.00;3133373;28;20060;-70
2022/04/27 02:00:12;;;;;;;6.35;2.03;;;;;;;14.40;75.50;99629.53;3133503;28;20111;-70
2022/04/27 02:01:44;;;;;;;4.50;2.08;;;;;;;14.43;75.22;99635.41;3131658;28;20052;-70
2022/04/27 02:03:18;;;;;;;4.55;1.92;;;;;;;14.43;75.30;99629.34;3133681;28;20057;-70
2022/04/27 02:04:49;;;;;;;4.13;1.80;;;;;;;14.46;74.89;99626.53;3133101;28;20441;-70
2022/04/27 02:06:21;;;;;;;5.22;1.52;;;;;;;14.47;74.71;99628.22;3133367;28;20049;-69
2022/04/27 02:07:54;;;;;;;4.70;2.00;;;;;;;14.48;74.86;99629.88;3132817;28;20111;-69
2022/04/27 02:09:26;;;;;;;3.92;2.00;;;;;;;14.49;74.87;99627.19;3133587;28;20075;-69
2022/04/27 02:10:58;;;;;;;4.40;1.55;;;;;;;14.51;74.73;99620.09;3132333;28;20053;-69
2022/04/27 02:12:29;;;;;;;4.88;1.88;;;;;;;14.50;74.54;99622.78;3128538;28;20123;-69
2022/04/27 02:14:01;;;;;;;3.42;1.83;;;;;;;14.49;74.83;99623.69;3127258;28;20053;-69
2022/04/27 02:15:33;;;;;;;2.35;1.92;;;;;;;14.51;74.57;99627.06;3123028;28;20075;-69
2022/04/27 02:17:05;;;;;;;4.93;1.85;;;;;;;14.47;74.52;99626.44;3127494;28;20375;-71
2022/04/27 02:18:37;;;;;;;3.25;1.75;;;;;;;14.51;74.69;99627.06;3133023;28;20048;-71
2022/04/27 02:20:10;;;;;;;2.78;1.85;;;;;;;14.52;74.38;99626.16;3131727;28;20060;-70
2022/04/27 02:21:42;;;;;;;3.88;1.80;;;;;;;14.54;74.34;99629.53;3112800;28;20100;-69
2022/04/27 02:23:19;;;;;;;4.18;1.80;;;;;;;14.56;74.38;99627.66;3113210;28;20054;-69
2022/04/27 02:24:51;;;;;;;5.38;2.05;;;;;;;14.58;74.17;99628.38;3124054;28;20144;-70
2022/04/27 02:26:23;;;;;;;6.43;1.90;;;;;;;14.57;74.23;99627.53;3134372;28;20478;-70
2022/04/27 02:27:55;;;;;;;3.90;1.90;;;;;;;14.54;74.06;99617.25;3133579;28;20115;-70
2022/04/27 02:29:28;;;;;;;4.30;2.20;;;;;;;14.63;74.31;99618.44;3133195;28;20218;-70
2022/04/27 02:30:59;;;;;;;3.65;2.10;;;;;;;14.65;73.98;99623.59;3131330;28;20121;-70
2022/04/27 02:32:31;;;;;;;5.95;2.45;;;;;;;14.65;73.77;99626.22;3133524;28;20049;-70
2022/04/27 02:34:03;;;;;;;4.22;2.17;;;;;;;14.62;73.71;99622.03;3137124;28;20106;-70
2022/04/27 02:35:35;;;;;;;6.70;2.60;;;;;;;14.64;74.16;99624.53;3133314;28;20060;-70
2022/04/27 02:37:07;;;;;;;5.88;2.08;;;;;;;14.63;73.78;99621.06;3131697;28;20045;-70
2022/04/27 02:38:40;;;;;;;3.78;2.38;;;;;;;14.64;74.02;99617.53;3132339;28;20053;-70
2022/04/27 02:40:12;;;;;;;8.60;3.00;;;;;;;14.60;73.92;99623.88;3130166;28;20045;-70
2022/04/27 02:41:44;;;;;;;7.43;2.43;;;;;;;14.53;74.46;99627.84;3127201;28;20511;-69
2022/04/27 02:43:16;;;;;;;7.75;2.58;;;;;;;14.43;74.65;99627.56;3133041;28;20094;-69
2022/04/27 02:44:48;;;;;;;6.25;2.50;;;;;;;14.34;75.25;99623.75;3128499;28;20811;-70
2022/04/27 02:46:20;;;;;;;7.35;2.65;;;;;;;14.28;75.44;99626.75;3132914;28;20041;-70
2022/04/27 02:47:52;;;;;;;7.25;3.00;;;;;;;14.18;75.56;99615.19;3130646;28;20044;-70
2022/04/27 02:53:02;;;;;;;7.18;2.97;;;;;;;14.15;75.69;99622.41;3127977;28;20076;-69
2022/04/27 02:54:34;;;;;;;8.82;3.17;;;;;;;14.09;76.01;99619.22;3132989;28;20107;-68
2022/04/27 02:56:07;;;;;;;9.10;3.40;;;;;;;14.12;75.79;99620.81;3130200;28;20052;-70
2022/04/27 02:57:39;;;;;;;6.88;3.45;;;;;;;14.12;75.85;99615.56;3122780;28;20668;-71
2022/04/27 02:59:11;;;;;;;4.72;3.05;;;;;;;14.14;75.74;99618.94;3120905;28;21019;-71
2022/04/27 03:00:45;;;;;;;6.38;3.20;;;;;;;14.17;75.59;99629.22;3123621;28;20057;-69
2022/04/27 03:02:17;;;;;;;7.57;3.38;;;;;;;14.18;75.57;99628.28;3122148;28;20052;-68
2022/04/27 03:03:49;;;;;;;9.82;3.38;;;;;;;14.19;75.73;99627.34;3123685;28;20610;-68
2022/04/27 03:05:20;;;;;;;6.35;3.03;;;;;;;14.17;75.62;99623.13;3123612;28;20067;-69
2022/04/27 03:06:52;;;;;;;6.50;2.63;;;;;;;14.16;75.88;99627.53;3123555;28;20049;-68
2022/04/27 03:08:24;;;;;;;5.97;2.80;;;;;;;14.10;75.79;99627.91;3122787;28;20118;-69
2022/04/27 03:09:58;;;;;;;5.22;2.92;;;;;;;13.82;75.80;99600.00;3123570;28;20114;-69
2022/04/27 03:11:28;;;;;;;;;;;;;;;13.94;76.34;99627.19;3121416;28;20336;-70
2022/04/27 03:13:00;;;;;;;4.68;2.78;;;;;;;13.85;76.07;99626.81;3119407;28;20066;-69
2022/04/27 03:14:32;;;;;;;8.45;3.08;;;;;;;13.82;76.56;99624.38;3121860;28;20060;-69
2022/04/27 03:16:05;;;;;;;9.40;3.42;;;;;;;13.50;76.47;99587.09;3118079;28;20052;-68
2022/04/27 03:17:36;;;;;;;6.57;3.30;;;;;;;13.77;76.78;99634.28;3123339;28;20049;-67
2022/04/27 03:19:08;;;;;;;8.10;3.65;;;;;;;13.74;76.69;99631.03;3123437;28;20775;-70
2022/04/27 03:20:40;;;;;;;7.10;3.50;;;;;;;13.65;76.81;99621.97;3117964;28;20053;-69
2022/04/27 03:22:12;;;;;;;7.60;3.50;;;;;;;13.67;77.16;99635.81;3121983;28;20056;-69
2022/04/27 03:23:43;;;;;;;6.80;3.42;;;;;;;13.64;77.34;99634.19;3124582;28;20129;-70
2022/04/27 03:25:16;;;;;;;6.35;4.10;;;;;;;13.58;77.54;99629.34;3125586;28;20100;-70
2022/04/27 03:26:48;;;;;;;5.63;3.58;;;;;;;13.60;77.49;99634.47;3127204;28;20084;-67
2022/04/27 03:28:20;;;;;;;5.45;3.17;;;;;;;13.62;77.28;99640.47;3120299;28;20080;-67
2022/04/27 03:29:52;;;;;;;7.95;3.08;;;;;;;13.63;77.22;99639.50;3126327;28;20053;-67
2022/04/27 03:31:24;;;;;;;6.50;3.10;;;;;;;13.64;77.24;99635.97;3127548;28;20075;-69
2022/04/27 03:32:56;;;;;;;4.53;3.13;;;;;;;13.67;77.34;99643.66;3126846;28;20052;-69
2022/04/27 03:34:28;;;;;;;9.52;3.80;;;;;;;13.68;77.47;99647.09;3127204;28;20615;-69
2022/04/27 03:36:00;;;;;;;6.78;3.47;;;;;;;13.70;77.09;99643.47;3126719;28;20171;-70
2022/04/27 03:37:32;;;;;;;5.57;3.17;;;;;;;13.75;77.37;99648.41;3127372;28;20053;-70
2022/04/27 03:39:04;;;;;;;6.10;3.60;;;;;;;13.76;77.29;99643.09;3126926;28;20615;-68
2022/04/27 03:40:38;;;;;;;9.10;4.05;;;;;;;13.80;77.11;99644.56;3127258;28;20057;-69
2022/04/27 03:42:10;;;;;;;9.00;3.60;;;;;;;13.82;77.03;99645.34;3126207;28;20056;-68
2022/04/27 03:43:42;;;;;;;5.85;3.35;;;;;;;13.87;76.77;99650.25;3126760;28;20049;-68
2022/04/27 03:45:14;;;;;;;7.95;3.85;;;;;;;13.90;76.71;99655.31;3127237;28;20144;-68
2022/04/27 03:46:46;;;;;;;6.40;3.50;;;;;;;13.91;76.80;99659.63;3125819;28;20795;-69
2022/04/27 03:48:18;;;;;;;7.22;4.18;;;;;;;13.94;76.56;99651.59;3127539;28;20183;-69
2022/04/27 03:49:51;;;;;;;6.63;3.42;;;;;;;13.96;76.72;99651.47;3126176;28;20637;-68
2022/04/27 03:51:23;;;;;;;;;;;;;;;13.97;76.19;99661.88;3127401;28;20056;-68
2022/04/27 03:52:55;;;;;;;6.75;3.42;;;;;;;13.99;76.51;99659.16;3127095;28;20401;-67
2022/04/27 03:54:27;;;;;;;6.03;3.63;;;;;;;14.00;76.24;99663.47;3125262;28;20057;-68
2022/04/27 03:56:00;;;;;;;9.68;3.90;;;;;;;13.98;76.48;99660.94;3120989;28;20478;-68
2022/04/27 03:57:32;;;;;;;;;;;;;;;14.01;76.20;99665.13;3120846;28;20345;-68
2022/04/27 03:59:04;;;;;;;10.70;3.63;;;;;;;13.99;76.39;99667.88;3118542;28;19972;-68
2022/04/27 04:00:36;;;;;;;15.02;4.80;;;;;;;13.98;76.39;99668.78;3126667;28;20148;-68
2022/04/27 04:02:08;;;;;;;10.20;4.50;;;;;;;14.00;76.50;99668.69;3126726;28;20060;-68
2022/04/27 04:03:40;;;;;;;7.63;4.30;;;;;;;13.86;76.73;99643.34;3126834;28;20106;-68
2022/04/27 04:05:12;;;;;;;6.30;4.30;;;;;;;14.02;76.65;99665.06;3126775;28;20056;-68
2022/04/27 04:06:44;;;;;;;8.23;4.57;;;;;;;14.04;76.97;99665.78;3126379;28;20059;-68
2022/04/27 04:08:16;;;;;;;7.43;3.60;;;;;;;14.06;76.82;99677.00;3126823;28;20098;-68
2022/04/27 04:09:49;;;;;;;11.43;4.40;;;;;;;13.86;76.39;99641.56;3127039;28;20079;-69
2022/04/27 04:11:22;;;;;;;7.07;3.33;;;;;;;14.09;76.37;99673.38;3125966;28;20532;-68
2022/04/27 04:12:53;;;;;;;;;;;;;;;14.11;76.23;99679.38;3126736;28;20053;-68
2022/04/27 04:14:26;;;;;;;12.85;4.65;;;;;;;14.11;76.37;99680.19;3127524;28;20435;-68
2022/04/27 04:15:58;;;;;;;12.70;4.53;;;;;;;14.13;76.45;99680.09;3127266;28;20060;-68
2022/04/27 04:17:30;;;;;;;8.77;4.00;;;;;;;14.15;76.40;99680.84;3126132;28;20398;-69
2022/04/27 04:19:01;;;;;;;7.05;3.67;;;;;;;14.18;76.28;99683.28;3122638;28;20061;-69
2022/04/27 04:20:34;;;;;;;5.40;3.67;;;;;;;14.21;76.28;99685.69;3118117;28;20065;-68
2022/04/27 04:22:06;;;;;;;13.43;3.83;;;;;;;14.20;76.01;99680.56;3119807;28;20053;-69
2022/04/27 04:23:38;;;;;;;9.40;3.55;;;;;;;14.26;75.78;99686.28;3107507;28;20049;-69
2022/04/27 04:28:53;;;;;;;9.30;3.90;;;;;;;14.17;75.96;99696.44;3088198;28;20654;-70
2022/04/27 04:30:25;;;;;;;9.10;3.75;;;;;;;14.08;76.40;99690.03;3120473;28;20110;-68
2022/04/27 04:31:57;;;;;;;9.13;4.03;;;;;;;14.11;76.10;99702.94;3121460;28;20682;-68
2022/04/27 04:33:28;;;;;;;9.43;3.83;;;;;;;14.07;76.31;99698.78;3124081;28;20048;-69
2022/04/27 04:35:00;;;;;;;7.70;4.30;;;;;;;14.06;76.65;99707.59;3118416;28;20053;-69
2022/04/27 04:36:32;;;;;;;12.82;3.92;;;;;;;14.06;76.46;99708.44;3121939;28;20056;-70
2022/04/27 04:38:04;;;;;;;11.63;4.13;;;;;;;14.05;76.60;99703.28;3120885;28;20201;-69
2022/04/27 04:39:36;;;;;;;13.38;4.60;;;;;;;14.00;76.70;99697.50;3121360;28;20417;-69
2022/04/27 04:41:08;;;;;;;16.02;4.60;;;;;;;13.99;76.52;99704.53;3121281;28;20049;-69
2022/04/27 04:42:42;;;;;;;12.20;5.03;;;;;;;13.96;76.61;99698.59;3121920;28;20609;-68
2022/04/27 04:44:13;;;;;;;;;;;;;;;13.95;76.75;99708.25;3120076;28;20232;-68
2022/04/27 04:45:45;;;;;;;10.82;4.65;;;;;;;13.93;76.35;99710.13;3118280;28;19982;-68
2022/04/27 04:47:17;;;;;;;12.50;5.43;;;;;;;13.89;76.47;99706.84;3122390;28;20057;-69
2022/04/27 04:48:50;;;;;;;9.30;5.25;;;;;;;13.91;76.72;99711.16;3119309;28;20190;-69
2022/04/27 04:50:21;;;;;;;9.65;4.65;;;;;;;13.89;76.53;99700.75;3120042;28;20780;-69
2022/04/27 04:51:53;;;;;;;18.48;4.40;;;;;;;13.97;76.62;99708.16;3121101;28;20065;-68
2022/04/27 04:53:25;;;;;;;8.90;4.10;;;;;;;13.98;76.43;99712.44;3120975;28;20210;-69
2022/04/27 04:54:57;;;;;;;8.73;4.10;;;;;;;13.98;76.25;99708.06;3118251;28;20044;-71
2022/04/27 04:56:29;;;;;;;6.88;3.75;;;;;;;14.04;76.46;99717.31;3120716;28;20048;-72
2022/04/27 04:58:04;;;;;;;10.63;3.97;;;;;;;14.07;75.89;99722.38;3122898;28;20128;-73
2022/04/27 04:59:36;;;;;;;14.85;4.03;;;;;;;14.10;75.56;99716.94;3126853;28;20510;-71
2022/04/27 05:01:08;;;;;;;12.30;4.57;;;;;;;14.10;75.71;99719.56;3128678;28;20490;-72
2022/04/27 05:02:40;;;;;;;8.27;4.82;;;;;;;14.05;75.51;99706.75;3133736;28;20115;-68
2022/04/27 05:04:12;;;;;;;11.10;4.57;;;;;;;13.99;75.19;99694.03;3121962;28;20058;-74
2022/04/27 05:05:44;;;;;;;8.63;4.43;;;;;;;14.14;75.66;99717.59;3125654;28;20083;-74
2022/04/27 05:07:18;;;;;;;12.77;4.38;;;;;;;14.18;76.04;99724.34;3129610;28;20053;-70
2022/04/27 05:08:50;;;;;;;7.03;4.35;;;;;;;14.09;75.98;99704.78;3132362;28;20053;-74
2022/04/27 05:10:22;;;;;;;11.93;5.13;;;;;;;14.20;76.00;99720.69;3128218;28;20114;-77
2022/04/27 05:11:54;;;;;;;10.75;4.50;;;;;;;14.24;76.18;99716.94;3127759;28;20049;-71
2022/04/27 05:13:27;;;;;;;14.30;4.80;;;;;;;14.30;76.21;99728.81;3133185;28;20099;-66
2022/04/27 05:14:59;;;;;;;6.38;4.68;;;;;;;14.21;76.37;99701.41;3128943;28;20049;-65
2022/04/27 05:16:33;;;;;;;10.50;4.00;;;;;;;14.35;76.16;99721.53;3127349;28;20052;-65
2022/04/27 05:18:05;;;;;;;8.90;4.85;;;;;;;14.33;76.33;99711.13;3128872;28;20456;-69
2022/04/27 05:19:37;;;;;;;17.10;4.60;;;;;;;14.38;75.87;99717.88;3131526;28;20056;-69
2022/04/27 05:21:09;;;;;;;8.05;4.32;;;;;;;14.44;76.09;99714.88;3126110;28;20372;-68
2022/04/27 05:22:41;;;;;;;7.93;4.05;;;;;;;14.49;75.86;99718.91;3128471;28;20079;-70
2022/04/27 05:24:11;;;;;;;10.38;4.78;;;;;;;14.55;75.60;99712.44;3127693;28;20048;-70
2022/04/27 05:25:43;;;;;;;16.60;8.68;;;;;;;14.61;75.71;99716.44;3124528;28;20049;-72
2022/04/27 05:27:15;;;;;;;23.90;12.88;;;;;;;14.59;75.63;99706.06;3127026;28;20044;-71
2022/04/27 05:32:29;;;;;;;10.88;4.57;;;;;;;14.87;74.60;99720.88;3133799;28;20049;-66
2022/04/27 05:34:01;;;;;;;13.85;4.28;;;;;;;14.90;74.59;99710.19;3133375;28;20056;-68
2022/04/27 05:35:40;;;;;;;36.28;16.70;;;;;;;15.04;74.09;99716.34;3131409;28;20044;-66
2022/04/27 05:37:12;;;;;;;13.40;5.28;;;;;;;15.14;73.64;99726.09;3133177;28;20041;-66
2022/04/27 05:38:44;;;;;;;21.40;8.93;;;;;;;15.23;73.56;99722.03;3133564;28;20843;-65
2022/04/27 05:40:16;;;;;;;8.75;4.68;;;;;;;15.32;73.22;99723.22;3132991;28;20053;-66
2022/04/27 05:41:49;;;;;;;10.57;4.00;;;;;;;15.28;72.85;99706.84;3133930;28;20115;-74
2022/04/27 05:43:21;;;;;;;6.10;3.88;;;;;;;15.43;72.36;99720.75;3132400;28;20437;-71
2022/04/27 05:44:55;;;;;;;9.10;3.80;;;;;;;15.41;72.08;99717.38;3128831;28;20099;-73
2022/04/27 05:46:26;;;;;;;;;;;;;;;15.50;71.79;99726.41;3130662;28;20300;-72
2022/04/27 05:47:58;;;;;;;7.50;3.88;;;;;;;15.56;71.80;99732.13;3133100;28;19921;-72
2022/04/27 05:49:30;;;;;;;12.80;4.47;;;;;;;15.63;71.79;99732.53;3133544;28;20052;-71
2022/04/27 05:51:03;;;;;;;9.20;3.55;;;;;;;15.71;71.49;99730.28;3122598;28;20053;-73
2022/04/27 05:52:52;;;;;;;11.97;4.07;;;;;;;15.58;70.85;99696.09;3125009;28;20539;-72
2022/04/27 05:54:27;;;;;;;18.52;3.90;;;;;;;15.79;70.99;99722.69;3127499;28;20084;-73
2022/04/27 05:55:59;;;;;;;13.05;4.18;;;;;;;15.90;70.29;99724.59;3133124;28;20649;-74
2022/04/27 05:57:31;;;;;;;17.67;4.68;;;;;;;15.82;70.06;99708.53;3132445;28;20106;-75
2022/04/27 05:59:03;;;;;;;14.77;4.70;;;;;;;15.99;69.88;99731.84;3133364;28;20124;-75
2022/04/27 06:00:36;;;;;;;8.32;3.42;;;;;;;16.09;69.86;99727.66;3133035;28;20056;-74
2022/04/27 06:02:08;;;;;;;;;;;;;;;16.18;69.57;99735.81;3133856;28;20044;-73
2022/04/27 06:03:40;;;;;;;15.70;3.45;;;;;;;16.27;69.14;99729.97;3133386;28;19925;-73
2022/04/27 06:05:12;;;;;;;6.07;2.80;;;;;;;16.35;68.91;99728.44;3133271;28;20423;-71
2022/04/27 06:06:43;;;;;;;7.22;3.75;;;;;;;16.48;68.70;99725.81;3132578;28;20060;-74
2022/04/27 06:08:15;;;;;;;8.95;3.38;;;;;;;16.55;68.18;99727.03;3127652;28;20081;-73
2022/04/27 06:09:47;;;;;;;13.70;4.50;;;;;;;16.57;67.88;99719.91;3129133;28;20051;-74
2022/04/27 06:11:20;;;;;;;10.02;3.05;;;;;;;16.49;67.22;99700.34;3129068;28;20056;-73
2022/04/27 06:12:53;;;;;;;13.32;2.90;;;;;;;16.75;66.77;99732.69;3128868;28;20077;-72
2022/04/27 06:14:25;;;;;;;9.95;3.15;;;;;;;16.81;66.37;99734.91;3131942;28;20147;-74
2022/04/27 06:15:59;;;;;;;7.82;2.92;;;;;;;16.89;66.39;99743.09;3129991;28;20057;-74
2022/04/27 06:17:31;;;;;;;8.95;2.70;;;;;;;16.95;66.16;99737.38;3125598;28;20041;-73
2022/04/27 06:19:03;;;;;;;6.45;2.88;;;;;;;16.98;65.97;99744.22;3131383;28;20056;-75
2022/04/27 06:20:35;;;;;;;8.52;2.88;;;;;;;16.94;65.62;99732.22;3130138;28;20522;-74
2022/04/27 06:22:07;;;;;;;5.50;2.40;;;;;;;17.06;65.55;99739.22;3132931;28;20056;-75
2022/04/27 06:23:39;;;;;;;5.78;2.70;;;;;;;17.14;65.39;99742.13;3128616;28;20053;-74
2022/04/27 06:25:12;;;;;;;4.50;2.50;;;;;;;17.18;64.57;99738.31;3133006;28;20053;-73
2022/04/27 06:26:44;;;;;;;5.07;2.50;;;;;;;17.18;64.09;99732.19;3129318;28;20132;-73
2022/04/27 06:28:16;;;;;;;5.53;2.30;;;;;;;17.22;63.75;99741.56;3123284;28;20135;-73
2022/04/27 06:29:48;;;;;;;3.28;1.63;;;;;;;17.25;63.39;99741.34;3128689;28;20587;-73
2022/04/27 06:31:21;;;;;;;3.95;1.95;;;;;;;17.31;63.34;99745.31;3132286;28;20580;-73
2022/04/27 06:32:53;;;;;;;4.63;1.90;;;;;;;17.22;63.15;99717.88;3130869;28;20545;-76
2022/04/27 06:34:25;;;;;;;4.65;2.58;;;;;;;17.39;63.10;99735.91;3131212;28;20057;-72
2022/04/27 06:35:57;;;;;;;9.30;3.03;;;;;;;17.52;63.37;99741.09;3128700;28;20045;-72
2022/04/27 06:37:29;;;;;;;3.80;2.53;;;;;;;17.61;63.18;99743.03;3134300;28;20053;-72
2022/04/27 06:39:00;;;;;;;6.03;2.88;;;;;;;17.58;62.83;99743.25;3131228;28;20140;-73
2022/04/27 06:40:33;;;;;;;6.68;2.88;;;;;;;17.68;62.72;99746.03;3132603;28;20053;-76
2022/04/27 06:42:05;;;;;;;5.40;2.78;;;;;;;17.76;62.73;99750.72;3131608;28;20053;-77
2022/04/27 06:43:37;;;;;;;7.47;2.90;;;;;;;17.80;62.49;99746.91;3131275;28;20048;-74
2022/04/27 06:45:10;;;;;;;9.82;2.60;;;;;;;17.72;62.50;99721.16;3130424;28;20049;-73
2022/04/27 06:46:44;;;;;;;6.85;2.88;;;;;;;18.00;62.31;99755.94;3132312;28;20048;-74
2022/04/27 06:48:15;;;;;;;3.50;2.53;;;;;;;18.08;61.99;99743.03;3124829;28;20477;-72
2022/04/27 06:49:47;;;;;;;4.50;2.67;;;;;;;18.16;61.60;99740.59;3131203;28;20049;-72
2022/04/27 06:51:19;;;;;;;5.40;2.75;;;;;;;18.28;61.35;99749.38;3132121;28;20057;-72
2022/04/27 06:52:52;;;;;;;6.82;2.65;;;;;;;18.31;60.85;99747.34;3130384;28;20426;-72
2022/04/27 06:54:24;;;;;;;4.28;2.30;;;;;;;18.42;60.71;99749.97;3130411;28;20437;-71
2022/04/27 06:55:56;;;;;;;6.90;2.00;;;;;;;18.51;59.99;99748.41;3130495;28;20103;-73
2022/04/27 06:57:28;;;;;;;4.60;2.00;;;;;;;18.63;59.77;99746.59;3132273;28;20064;-72
2022/04/27 06:58:59;;;;;;;5.05;2.28;;;;;;;18.69;59.27;99751.38;3129027;28;20144;-71
2022/04/27 07:00:31;;;;;;;5.13;2.30;;;;;;;18.79;58.88;99748.88;3129337;28;20052;-69
2022/04/27 07:02:05;;;;;;;10.32;2.30;;;;;;;18.91;58.58;99749.72;3119298;28;20100;-72
2022/04/27 07:03:38;;;;;;;9.35;2.42;;;;;;;18.99;58.44;99740.22;3132558;28;20102;-71
2022/04/27 07:05:16;;;;;;;6.50;2.22;;;;;;;19.14;58.15;99742.53;3121505;28;20544;-71
2022/04/27 07:06:48;;;;;;;6.35;2.33;;;;;;;19.26;57.89;99744.19;3115566;28;20048;-70
2022/04/27 07:08:20;;;;;;;4.90;2.40;;;;;;;19.32;57.32;99748.97;3131405;28;20045;-70
2022/04/27 07:09:52;;;;;;;9.75;2.80;;;;;;;19.40;56.85;99750.97;3127715;28;20080;-69
2022/04/27 07:11:24;;;;;;;5.70;3.10;;;;;;;19.37;55.83;99745.94;3127065;28;20054;-69
2022/04/27 07:12:56;;;;;;;7.47;2.70;;;;;;;19.51;56.26;99745.63;3119330;28;20099;-75
2022/04/27 07:14:28;;;;;;;6.00;2.40;;;;;;;19.65;55.91;99747.16;3122335;28;20049;-72
2022/04/27 07:16:01;;;;;;;6.38;2.60;;;;;;;19.53;55.75;99704.09;3132877;28;20053;-74
2022/04/27 07:17:39;;;;;;;11.45;2.80;;;;;;;19.87;55.77;99732.97;3130762;28;20123;-72
2022/04/27 07:19:11;;;;;;;9.85;2.40;;;;;;;20.11;55.56;99740.59;3129996;28;20088;-75
2022/04/27 07:20:43;;;;;;;10.50;2.42;;;;;;;20.25;55.23;99742.91;3127044;28;20067;-73
2022/04/27 07:22:15;;;;;;;8.20;2.42;;;;;;;20.44;54.37;99747.44;3116375;28;20396;-73
2022/04/27 07:23:47;;;;;;;8.10;2.20;;;;;;;20.48;54.06;99724.19;3122690;28;20065;-72
2022/04/27 07:25:19;;;;;;;8.85;2.85;;;;;;;20.78;53.12;99747.97;3130568;28;20049;-73
2022/04/27 07:26:53;;;;;;;6.55;2.80;;;;;;;20.88;52.42;99746.22;3128352;28;20148;-73
2022/04/27 07:28:26;;;;;;;9.93;4.53;;;;;;;20.99;52.46;99750.53;3128030;28;20049;-72
2022/04/27 07:29:57;;;;;;;13.40;7.05;;;;;;;21.11;52.34;99740.66;3130005;28;20088;-73